sensor_id;sensor_type;location;lat;lon;timestamp;P1;durP1;ratioP1;P2;durP2;ratioP2
30862;SDS011;17573;55.922;37.540;2022-12-18T00:00:41;17.30;;;12.15;;
30862;SDS011;17573;55.922;37.540;2022-12-18T00:03:15;25.17;;;14.82;;
30862;SDS011;17573;55.922;37.540;2022-12-18T00:06:08;19.80;;;12.20;;
30862;SDS011;17573;55.922;37.540;2022-12-18T00:08:42;19.73;;;12.25;;
30862;SDS011;17573;55.922;37.540;2022-12-18T00:11:36;29.92;;;14.00;;
30862;SDS011;17573;55.922;37.540;2022-12-18T00:14:09;19.50;;;12.80;;
30862;SDS011;17573;55.922;37.540;2022-12-18T00:17:04;18.60;;;11.45;;
30862;SDS011;17573;55.922;37.540;2022-12-18T00:19:36;21.20;;;11.48;;
30862;SDS011;17573;55.922;37.540;2022-12-18T00:22:29;18.92;;;12.65;;
30862;SDS011;17573;55.922;37.540;2022-12-18T00:25:02;18.73;;;12.75;;
30862;SDS011;17573;55.922;37.540;2022-12-18T00:27:55;15.65;;;10.55;;
30862;SDS011;17573;55.922;37.540;2022-12-18T00:30:28;21.13;;;11.68;;
30862;SDS011;17573;55.922;37.540;2022-12-18T00:33:21;19.77;;;12.05;;
30862;SDS011;17573;55.922;37.540;2022-12-18T00:35:54;22.83;;;11.85;;
30862;SDS011;17573;55.922;37.540;2022-12-18T00:38:46;14.90;;;11.05;;
30862;SDS011;17573;55.922;37.540;2022-12-18T00:41:19;13.20;;;8.30;;
30862;SDS011;17573;55.922;37.540;2022-12-18T00:44:31;20.92;;;11.45;;
30862;SDS011;17573;55.922;37.540;2022-12-18T00:47:04;16.92;;;11.68;;
30862;SDS011;17573;55.922;37.540;2022-12-18T00:49:57;18.60;;;13.80;;
30862;SDS011;17573;55.922;37.540;2022-12-18T00:52:29;21.48;;;13.48;;
30862;SDS011;17573;55.922;37.540;2022-12-18T00:55:22;16.08;;;11.15;;
30862;SDS011;17573;55.922;37.540;2022-12-18T00:57:56;18.17;;;11.88;;
30862;SDS011;17573;55.922;37.540;2022-12-18T01:00:49;18.58;;;11.93;;
30862;SDS011;17573;55.922;37.540;2022-12-18T01:03:22;20.05;;;10.25;;
30862;SDS011;17573;55.922;37.540;2022-12-18T01:06:15;22.67;;;13.02;;
30862;SDS011;17573;55.922;37.540;2022-12-18T01:08:47;17.00;;;11.32;;
30862;SDS011;17573;55.922;37.540;2022-12-18T01:11:40;16.63;;;11.18;;
30862;SDS011;17573;55.922;37.540;2022-12-18T01:14:13;18.20;;;10.43;;
30862;SDS011;17573;55.922;37.540;2022-12-18T01:17:05;16.20;;;11.23;;
30862;SDS011;17573;55.922;37.540;2022-12-18T01:19:37;17.38;;;13.40;;
30862;SDS011;17573;55.922;37.540;2022-12-18T01:22:30;17.55;;;10.40;;
30862;SDS011;17573;55.922;37.540;2022-12-18T01:25:06;17.35;;;11.95;;
30862;SDS011;17573;55.922;37.540;2022-12-18T01:27:59;14.80;;;10.80;;
30862;SDS011;17573;55.922;37.540;2022-12-18T01:30:31;17.98;;;11.93;;
30862;SDS011;17573;55.922;37.540;2022-12-18T01:33:25;18.50;;;11.50;;
30862;SDS011;17573;55.922;37.540;2022-12-18T01:35:58;20.20;;;11.85;;
30862;SDS011;17573;55.922;37.540;2022-12-18T01:38:51;18.98;;;11.38;;
30862;SDS011;17573;55.922;37.540;2022-12-18T01:41:26;20.67;;;11.70;;
30862;SDS011;17573;55.922;37.540;2022-12-18T01:53:12;19.63;;;11.98;;
30862;SDS011;17573;55.922;37.540;2022-12-18T01:56:07;17.45;;;11.48;;
30862;SDS011;17573;55.922;37.540;2022-12-18T02:01:51;16.83;;;9.97;;
30862;SDS011;17573;55.922;37.540;2022-12-18T02:04:25;17.13;;;10.30;;
30862;SDS011;17573;55.922;37.540;2022-12-18T02:10:22;18.58;;;11.55;;
30862;SDS011;17573;55.922;37.540;2022-12-18T02:20:23;17.85;;;11.75;;
30862;SDS011;17573;55.922;37.540;2022-12-18T02:26:22;14.27;;;9.95;;
30862;SDS011;17573;55.922;37.540;2022-12-18T02:29:54;12.98;;;10.10;;
30862;SDS011;17573;55.922;37.540;2022-12-18T02:32:33;15.43;;;10.80;;
30862;SDS011;17573;55.922;37.540;2022-12-18T02:35:10;22.70;;;11.93;;
30862;SDS011;17573;55.922;37.540;2022-12-18T02:38:09;18.70;;;11.10;;
30862;SDS011;17573;55.922;37.540;2022-12-18T02:40:47;14.32;;;10.80;;
30862;SDS011;17573;55.922;37.540;2022-12-18T02:43:46;15.18;;;10.48;;
30862;SDS011;17573;55.922;37.540;2022-12-18T02:46:29;15.32;;;10.77;;
30862;SDS011;17573;55.922;37.540;2022-12-18T02:49:40;16.35;;;10.45;;
30862;SDS011;17573;55.922;37.540;2022-12-18T03:04:30;17.67;;;11.30;;
30862;SDS011;17573;55.922;37.540;2022-12-18T03:07:35;13.52;;;9.90;;
30862;SDS011;17573;55.922;37.540;2022-12-18T03:10:13;14.27;;;10.32;;
30862;SDS011;17573;55.922;37.540;2022-12-18T03:13:12;17.77;;;11.43;;
30862;SDS011;17573;55.922;37.540;2022-12-18T03:15:48;12.85;;;10.70;;
30862;SDS011;17573;55.922;37.540;2022-12-18T03:18:44;27.13;;;9.73;;
30862;SDS011;17573;55.922;37.540;2022-12-18T03:21:26;13.48;;;9.52;;
30862;SDS011;17573;55.922;37.540;2022-12-18T03:24:21;14.75;;;9.95;;
30862;SDS011;17573;55.922;37.540;2022-12-18T03:26:57;12.93;;;9.23;;
30862;SDS011;17573;55.922;37.540;2022-12-18T03:29:56;13.35;;;9.52;;
30862;SDS011;17573;55.922;37.540;2022-12-18T03:35:58;12.40;;;9.18;;
30862;SDS011;17573;55.922;37.540;2022-12-18T03:38:32;12.75;;;9.38;;
30862;SDS011;17573;55.922;37.540;2022-12-18T03:44:14;18.05;;;10.27;;
30862;SDS011;17573;55.922;37.540;2022-12-18T03:49:51;15.65;;;8.93;;
30862;SDS011;17573;55.922;37.540;2022-12-18T03:52:50;14.85;;;10.07;;
30862;SDS011;17573;55.922;37.540;2022-12-18T03:55:27;14.65;;;9.23;;
30862;SDS011;17573;55.922;37.540;2022-12-18T03:58:24;25.50;;;11.98;;
30862;SDS011;17573;55.922;37.540;2022-12-18T04:01:12;12.82;;;8.73;;
30862;SDS011;17573;55.922;37.540;2022-12-18T04:04:06;16.00;;;10.43;;
30862;SDS011;17573;55.922;37.540;2022-12-18T04:06:42;14.40;;;9.88;;
30862;SDS011;17573;55.922;37.540;2022-12-18T04:09:36;16.65;;;10.25;;
30862;SDS011;17573;55.922;37.540;2022-12-18T04:12:16;11.63;;;8.32;;
30862;SDS011;17573;55.922;37.540;2022-12-18T04:15:10;16.95;;;9.57;;
30862;SDS011;17573;55.922;37.540;2022-12-18T04:17:46;21.30;;;10.10;;
30862;SDS011;17573;55.922;37.540;2022-12-18T04:20:48;13.93;;;8.75;;
30862;SDS011;17573;55.922;37.540;2022-12-18T04:23:21;13.43;;;9.68;;
30862;SDS011;17573;55.922;37.540;2022-12-18T04:26:14;13.57;;;8.63;;
30862;SDS011;17573;55.922;37.540;2022-12-18T04:29:19;16.20;;;10.60;;
30862;SDS011;17573;55.922;37.540;2022-12-18T04:32:12;12.40;;;8.65;;
30862;SDS011;17573;55.922;37.540;2022-12-18T04:34:46;15.77;;;8.82;;
30862;SDS011;17573;55.922;37.540;2022-12-18T04:37:39;12.65;;;8.30;;
30862;SDS011;17573;55.922;37.540;2022-12-18T04:40:12;14.15;;;10.55;;
30862;SDS011;17573;55.922;37.540;2022-12-18T04:43:05;16.67;;;9.70;;
30862;SDS011;17573;55.922;37.540;2022-12-18T04:45:37;12.80;;;9.65;;
30862;SDS011;17573;55.922;37.540;2022-12-18T04:48:30;26.58;;;10.95;;
30862;SDS011;17573;55.922;37.540;2022-12-18T04:51:03;15.82;;;10.10;;
30862;SDS011;17573;55.922;37.540;2022-12-18T04:53:56;13.23;;;9.63;;
30862;SDS011;17573;55.922;37.540;2022-12-18T04:56:29;15.05;;;9.10;;
30862;SDS011;17573;55.922;37.540;2022-12-18T04:59:23;15.48;;;9.07;;
30862;SDS011;17573;55.922;37.540;2022-12-18T05:01:56;17.70;;;11.18;;
30862;SDS011;17573;55.922;37.540;2022-12-18T05:04:48;15.40;;;10.50;;
30862;SDS011;17573;55.922;37.540;2022-12-18T05:07:20;18.27;;;10.35;;
30862;SDS011;17573;55.922;37.540;2022-12-18T05:10:13;14.32;;;10.57;;
30862;SDS011;17573;55.922;37.540;2022-12-18T05:12:46;15.13;;;10.45;;
30862;SDS011;17573;55.922;37.540;2022-12-18T05:15:50;11.88;;;8.52;;
30862;SDS011;17573;55.922;37.540;2022-12-18T05:18:24;12.77;;;9.20;;
30862;SDS011;17573;55.922;37.540;2022-12-18T05:21:17;16.15;;;11.07;;
30862;SDS011;17573;55.922;37.540;2022-12-18T05:23:49;15.73;;;10.15;;
30862;SDS011;17573;55.922;37.540;2022-12-18T05:26:42;15.88;;;10.43;;
30862;SDS011;17573;55.922;37.540;2022-12-18T05:29:14;13.15;;;9.25;;
30862;SDS011;17573;55.922;37.540;2022-12-18T05:32:08;18.75;;;9.45;;
30862;SDS011;17573;55.922;37.540;2022-12-18T05:34:40;18.67;;;10.57;;
30862;SDS011;17573;55.922;37.540;2022-12-18T05:37:33;11.32;;;8.38;;
30862;SDS011;17573;55.922;37.540;2022-12-18T05:40:06;18.85;;;9.93;;
30862;SDS011;17573;55.922;37.540;2022-12-18T05:42:59;16.85;;;9.57;;
30862;SDS011;17573;55.922;37.540;2022-12-18T05:45:31;17.02;;;8.60;;
30862;SDS011;17573;55.922;37.540;2022-12-18T05:48:24;15.05;;;10.35;;
30862;SDS011;17573;55.922;37.540;2022-12-18T05:51:02;20.02;;;13.60;;
30862;SDS011;17573;55.922;37.540;2022-12-18T05:54:21;20.23;;;9.68;;
30862;SDS011;17573;55.922;37.540;2022-12-18T05:56:53;22.85;;;9.98;;
30862;SDS011;17573;55.922;37.540;2022-12-18T05:59:46;15.27;;;9.45;;
30862;SDS011;17573;55.922;37.540;2022-12-18T06:02:18;16.88;;;9.80;;
30862;SDS011;17573;55.922;37.540;2022-12-18T06:05:11;21.42;;;10.35;;
30862;SDS011;17573;55.922;37.540;2022-12-18T06:07:44;21.90;;;9.88;;
30862;SDS011;17573;55.922;37.540;2022-12-18T06:10:37;19.52;;;9.65;;
30862;SDS011;17573;55.922;37.540;2022-12-18T06:13:10;14.93;;;10.57;;
30862;SDS011;17573;55.922;37.540;2022-12-18T06:16:06;13.52;;;8.95;;
30862;SDS011;17573;55.922;37.540;2022-12-18T06:18:39;12.90;;;9.70;;
30862;SDS011;17573;55.922;37.540;2022-12-18T06:21:32;11.63;;;8.80;;
30862;SDS011;17573;55.922;37.540;2022-12-18T06:24:05;13.23;;;9.15;;
30862;SDS011;17573;55.922;37.540;2022-12-18T06:26:58;15.70;;;9.32;;
30862;SDS011;17573;55.922;37.540;2022-12-18T06:29:30;14.80;;;10.30;;
30862;SDS011;17573;55.922;37.540;2022-12-18T06:32:23;12.85;;;8.80;;
30862;SDS011;17573;55.922;37.540;2022-12-18T06:34:56;14.77;;;8.70;;
30862;SDS011;17573;55.922;37.540;2022-12-18T06:37:48;12.38;;;8.20;;
30862;SDS011;17573;55.922;37.540;2022-12-18T06:40:21;14.85;;;9.75;;
30862;SDS011;17573;55.922;37.540;2022-12-18T06:43:15;18.55;;;8.80;;
30862;SDS011;17573;55.922;37.540;2022-12-18T06:45:47;13.68;;;9.43;;
30862;SDS011;17573;55.922;37.540;2022-12-18T06:48:40;15.18;;;9.90;;
30862;SDS011;17573;55.922;37.540;2022-12-18T06:51:15;20.90;;;9.57;;
30862;SDS011;17573;55.922;37.540;2022-12-18T06:54:09;13.52;;;8.95;;
30862;SDS011;17573;55.922;37.540;2022-12-18T06:56:44;18.98;;;9.80;;
30862;SDS011;17573;55.922;37.540;2022-12-18T06:59:38;14.55;;;9.07;;
30862;SDS011;17573;55.922;37.540;2022-12-18T07:02:11;17.10;;;10.23;;
30862;SDS011;17573;55.922;37.540;2022-12-18T07:05:04;14.23;;;9.90;;
30862;SDS011;17573;55.922;37.540;2022-12-18T07:07:37;14.73;;;10.13;;
30862;SDS011;17573;55.922;37.540;2022-12-18T07:10:30;12.32;;;9.05;;
30862;SDS011;17573;55.922;37.540;2022-12-18T07:13:03;15.85;;;9.02;;
30862;SDS011;17573;55.922;37.540;2022-12-18T07:15:55;15.63;;;10.75;;
30862;SDS011;17573;55.922;37.540;2022-12-18T07:18:28;13.40;;;9.13;;
30862;SDS011;17573;55.922;37.540;2022-12-18T07:21:20;16.90;;;11.18;;
30862;SDS011;17573;55.922;37.540;2022-12-18T07:23:53;13.20;;;9.45;;
30862;SDS011;17573;55.922;37.540;2022-12-18T07:26:46;15.50;;;10.43;;
30862;SDS011;17573;55.922;37.540;2022-12-18T07:29:19;14.88;;;9.52;;
30862;SDS011;17573;55.922;37.540;2022-12-18T07:32:11;12.98;;;9.75;;
30862;SDS011;17573;55.922;37.540;2022-12-18T07:34:44;18.73;;;10.70;;
30862;SDS011;17573;55.922;37.540;2022-12-18T07:37:37;17.13;;;10.57;;
30862;SDS011;17573;55.922;37.540;2022-12-18T07:40:10;21.52;;;10.32;;
30862;SDS011;17573;55.922;37.540;2022-12-18T07:43:03;15.90;;;9.68;;
30862;SDS011;17573;55.922;37.540;2022-12-18T07:45:36;12.55;;;9.65;;
30862;SDS011;17573;55.922;37.540;2022-12-18T07:48:29;16.75;;;10.48;;
30862;SDS011;17573;55.922;37.540;2022-12-18T07:51:04;16.60;;;10.20;;
30862;SDS011;17573;55.922;37.540;2022-12-18T07:53:58;14.98;;;9.15;;
30862;SDS011;17573;55.922;37.540;2022-12-18T07:56:30;18.38;;;10.10;;
30862;SDS011;17573;55.922;37.540;2022-12-18T07:59:23;19.90;;;10.65;;
30862;SDS011;17573;55.922;37.540;2022-12-18T08:01:56;15.90;;;9.95;;
30862;SDS011;17573;55.922;37.540;2022-12-18T08:04:49;12.43;;;9.13;;
30862;SDS011;17573;55.922;37.540;2022-12-18T08:07:21;15.60;;;9.98;;
30862;SDS011;17573;55.922;37.540;2022-12-18T08:10:14;14.32;;;9.82;;
30862;SDS011;17573;55.922;37.540;2022-12-18T08:12:50;16.40;;;10.00;;
30862;SDS011;17573;55.922;37.540;2022-12-18T08:15:43;14.88;;;9.45;;
30862;SDS011;17573;55.922;37.540;2022-12-18T08:18:16;18.83;;;9.90;;
30862;SDS011;17573;55.922;37.540;2022-12-18T08:21:13;15.35;;;10.10;;
30862;SDS011;17573;55.922;37.540;2022-12-18T08:23:50;14.38;;;9.82;;
30862;SDS011;17573;55.922;37.540;2022-12-18T08:26:43;13.95;;;9.45;;
30862;SDS011;17573;55.922;37.540;2022-12-18T08:29:16;14.57;;;10.25;;
30862;SDS011;17573;55.922;37.540;2022-12-18T08:32:08;11.55;;;8.82;;
30862;SDS011;17573;55.922;37.540;2022-12-18T08:34:41;13.93;;;9.27;;
30862;SDS011;17573;55.922;37.540;2022-12-18T08:37:35;15.75;;;10.68;;
30862;SDS011;17573;55.922;37.540;2022-12-18T08:40:08;13.45;;;9.10;;
30862;SDS011;17573;55.922;37.540;2022-12-18T08:43:01;15.25;;;9.27;;
30862;SDS011;17573;55.922;37.540;2022-12-18T08:45:51;13.45;;;9.38;;
30862;SDS011;17573;55.922;37.540;2022-12-18T08:48:44;12.40;;;9.13;;
30862;SDS011;17573;55.922;37.540;2022-12-18T08:51:17;13.02;;;9.18;;
30862;SDS011;17573;55.922;37.540;2022-12-18T08:54:10;13.48;;;9.85;;
30862;SDS011;17573;55.922;37.540;2022-12-18T08:56:46;13.63;;;10.25;;
30862;SDS011;17573;55.922;37.540;2022-12-18T08:59:56;12.75;;;8.38;;
30862;SDS011;17573;55.922;37.540;2022-12-18T09:02:29;16.17;;;9.77;;
30862;SDS011;17573;55.922;37.540;2022-12-18T09:05:22;13.50;;;9.43;;
30862;SDS011;17573;55.922;37.540;2022-12-18T09:07:54;16.98;;;9.90;;
30862;SDS011;17573;55.922;37.540;2022-12-18T09:10:48;18.92;;;10.73;;
30862;SDS011;17573;55.922;37.540;2022-12-18T09:13:22;13.50;;;8.65;;
30862;SDS011;17573;55.922;37.540;2022-12-18T09:16:14;11.68;;;9.07;;
30862;SDS011;17573;55.922;37.540;2022-12-18T09:18:47;14.23;;;9.57;;
30862;SDS011;17573;55.922;37.540;2022-12-18T09:21:44;11.20;;;8.38;;
30862;SDS011;17573;55.922;37.540;2022-12-18T09:24:16;12.13;;;8.75;;
30862;SDS011;17573;55.922;37.540;2022-12-18T09:27:09;17.63;;;9.45;;
30862;SDS011;17573;55.922;37.540;2022-12-18T09:29:41;11.98;;;8.95;;
30862;SDS011;17573;55.922;37.540;2022-12-18T09:32:35;15.18;;;9.10;;
30862;SDS011;17573;55.922;37.540;2022-12-18T09:35:08;14.27;;;10.00;;
30862;SDS011;17573;55.922;37.540;2022-12-18T09:38:00;12.10;;;7.80;;
30862;SDS011;17573;55.922;37.540;2022-12-18T09:40:35;13.32;;;9.18;;
30862;SDS011;17573;55.922;37.540;2022-12-18T09:43:32;14.32;;;10.25;;
30862;SDS011;17573;55.922;37.540;2022-12-18T09:46:10;20.13;;;8.55;;
30862;SDS011;17573;55.922;37.540;2022-12-18T09:49:10;10.13;;;7.25;;
30862;SDS011;17573;55.922;37.540;2022-12-18T09:54:50;11.23;;;8.23;;
30862;SDS011;17573;55.922;37.540;2022-12-18T09:57:35;14.43;;;9.15;;
30862;SDS011;17573;55.922;37.540;2022-12-18T10:00:31;12.23;;;8.35;;
30862;SDS011;17573;55.922;37.540;2022-12-18T10:03:10;17.00;;;8.77;;
30862;SDS011;17573;55.922;37.540;2022-12-18T10:06:07;12.50;;;8.43;;
30862;SDS011;17573;55.922;37.540;2022-12-18T10:14:55;10.43;;;7.65;;
30862;SDS011;17573;55.922;37.540;2022-12-18T10:18:17;13.07;;;9.27;;
30862;SDS011;17573;55.922;37.540;2022-12-18T10:21:10;23.40;;;9.65;;
30862;SDS011;17573;55.922;37.540;2022-12-18T10:24:18;10.82;;;8.40;;
30862;SDS011;17573;55.922;37.540;2022-12-18T10:26:59;10.60;;;7.18;;
30862;SDS011;17573;55.922;37.540;2022-12-18T10:30:12;9.52;;;7.15;;
30862;SDS011;17573;55.922;37.540;2022-12-18T10:32:47;11.98;;;8.85;;
30862;SDS011;17573;55.922;37.540;2022-12-18T10:35:41;15.02;;;9.60;;
30862;SDS011;17573;55.922;37.540;2022-12-18T10:47:12;11.68;;;7.78;;
30862;SDS011;17573;55.922;37.540;2022-12-18T10:49:48;11.98;;;8.30;;
30862;SDS011;17573;55.922;37.540;2022-12-18T10:52:42;17.30;;;9.73;;
30862;SDS011;17573;55.922;37.540;2022-12-18T10:55:15;14.30;;;8.65;;
30862;SDS011;17573;55.922;37.540;2022-12-18T10:58:25;12.93;;;7.22;;
30862;SDS011;17573;55.922;37.540;2022-12-18T11:01:03;9.90;;;7.63;;
30862;SDS011;17573;55.922;37.540;2022-12-18T11:04:08;15.18;;;8.57;;
30862;SDS011;17573;55.922;37.540;2022-12-18T11:06:55;11.73;;;8.52;;
30862;SDS011;17573;55.922;37.540;2022-12-18T11:12:31;11.55;;;8.30;;
30862;SDS011;17573;55.922;37.540;2022-12-18T11:15:27;11.50;;;8.50;;
30862;SDS011;17573;55.922;37.540;2022-12-18T11:18:01;12.38;;;7.38;;
30862;SDS011;17573;55.922;37.540;2022-12-18T11:20:59;10.02;;;7.18;;
30862;SDS011;17573;55.922;37.540;2022-12-18T11:23:47;12.73;;;8.27;;
30862;SDS011;17573;55.922;37.540;2022-12-18T11:26:42;11.25;;;7.50;;
30862;SDS011;17573;55.922;37.540;2022-12-18T11:29:18;12.38;;;8.77;;
30862;SDS011;17573;55.922;37.540;2022-12-18T11:32:25;12.85;;;8.23;;
30862;SDS011;17573;55.922;37.540;2022-12-18T11:38:10;9.95;;;6.63;;
30862;SDS011;17573;55.922;37.540;2022-12-18T11:40:51;8.77;;;7.88;;
30862;SDS011;17573;55.922;37.540;2022-12-18T11:43:54;10.45;;;7.75;;
30862;SDS011;17573;55.922;37.540;2022-12-18T11:46:34;11.27;;;7.47;;
30862;SDS011;17573;55.922;37.540;2022-12-18T11:49:33;10.85;;;8.00;;
30862;SDS011;17573;55.922;37.540;2022-12-18T11:52:18;33.97;;;10.13;;
30862;SDS011;17573;55.922;37.540;2022-12-18T11:55:22;10.88;;;8.23;;
30862;SDS011;17573;55.922;37.540;2022-12-18T12:08:15;9.27;;;6.70;;
30862;SDS011;17573;55.922;37.540;2022-12-18T12:11:05;13.77;;;7.50;;
30862;SDS011;17573;55.922;37.540;2022-12-18T12:20:42;9.50;;;7.53;;
30862;SDS011;17573;55.922;37.540;2022-12-18T12:26:22;9.80;;;6.65;;
30862;SDS011;17573;55.922;37.540;2022-12-18T12:38:50;13.38;;;8.02;;
30862;SDS011;17573;55.922;37.540;2022-12-18T12:41:24;10.88;;;7.43;;
30862;SDS011;17573;55.922;37.540;2022-12-18T12:44:42;15.93;;;8.13;;
30862;SDS011;17573;55.922;37.540;2022-12-18T12:47:27;14.48;;;8.88;;
30862;SDS011;17573;55.922;37.540;2022-12-18T12:50:22;14.55;;;9.68;;
30862;SDS011;17573;55.922;37.540;2022-12-18T12:52:55;16.83;;;10.43;;
30862;SDS011;17573;55.922;37.540;2022-12-18T12:55:49;20.17;;;10.18;;
30862;SDS011;17573;55.922;37.540;2022-12-18T12:58:27;16.85;;;10.25;;
30862;SDS011;17573;55.922;37.540;2022-12-18T13:07:51;23.88;;;12.45;;
30862;SDS011;17573;55.922;37.540;2022-12-18T13:10:28;26.45;;;11.82;;
30862;SDS011;17573;55.922;37.540;2022-12-18T13:13:28;31.45;;;15.55;;
30862;SDS011;17573;55.922;37.540;2022-12-18T13:16:23;31.23;;;14.35;;
30862;SDS011;17573;55.922;37.540;2022-12-18T13:19:21;32.05;;;13.32;;
30862;SDS011;17573;55.922;37.540;2022-12-18T13:21:57;34.22;;;15.50;;
30862;SDS011;17573;55.922;37.540;2022-12-18T13:24:50;31.20;;;14.93;;
30862;SDS011;17573;55.922;37.540;2022-12-18T13:36:11;39.25;;;15.23;;
30862;SDS011;17573;55.922;37.540;2022-12-18T13:45:31;25.35;;;12.27;;
30862;SDS011;17573;55.922;37.540;2022-12-18T13:48:35;19.98;;;11.73;;
30862;SDS011;17573;55.922;37.540;2022-12-18T13:51:09;20.65;;;12.23;;
30862;SDS011;17573;55.922;37.540;2022-12-18T13:54:16;25.83;;;12.70;;
30862;SDS011;17573;55.922;37.540;2022-12-18T13:56:52;23.67;;;11.57;;
30862;SDS011;17573;55.922;37.540;2022-12-18T13:59:44;22.33;;;11.82;;
30862;SDS011;17573;55.922;37.540;2022-12-18T14:02:19;23.85;;;13.00;;
30862;SDS011;17573;55.922;37.540;2022-12-18T14:05:24;21.58;;;11.63;;
30862;SDS011;17573;55.922;37.540;2022-12-18T14:08:03;20.95;;;10.95;;
30862;SDS011;17573;55.922;37.540;2022-12-18T14:11:03;19.42;;;11.15;;
30862;SDS011;17573;55.922;37.540;2022-12-18T14:13:41;23.08;;;11.77;;
30862;SDS011;17573;55.922;37.540;2022-12-18T14:16:34;18.73;;;10.07;;
30862;SDS011;17573;55.922;37.540;2022-12-18T14:19:08;17.90;;;10.55;;
30862;SDS011;17573;55.922;37.540;2022-12-18T14:22:12;14.20;;;8.77;;
30862;SDS011;17573;55.922;37.540;2022-12-18T14:25:04;19.13;;;9.10;;
30862;SDS011;17573;55.922;37.540;2022-12-18T14:30:42;11.15;;;8.25;;
30862;SDS011;17573;55.922;37.540;2022-12-18T14:33:35;11.20;;;8.00;;
30862;SDS011;17573;55.922;37.540;2022-12-18T14:36:17;14.35;;;8.55;;
30862;SDS011;17573;55.922;37.540;2022-12-18T14:39:13;14.23;;;8.60;;
30862;SDS011;17573;55.922;37.540;2022-12-18T14:41:49;13.23;;;8.65;;
30862;SDS011;17573;55.922;37.540;2022-12-18T14:44:41;12.57;;;8.93;;
30862;SDS011;17573;55.922;37.540;2022-12-18T14:47:15;11.65;;;7.95;;
30862;SDS011;17573;55.922;37.540;2022-12-18T14:50:12;15.57;;;8.57;;
30862;SDS011;17573;55.922;37.540;2022-12-18T14:52:46;11.18;;;8.75;;
30862;SDS011;17573;55.922;37.540;2022-12-18T14:55:38;11.88;;;9.40;;
30862;SDS011;17573;55.922;37.540;2022-12-18T14:58:17;11.35;;;9.18;;
30862;SDS011;17573;55.922;37.540;2022-12-18T15:01:17;10.93;;;7.32;;
30862;SDS011;17573;55.922;37.540;2022-12-18T15:03:53;11.57;;;7.82;;
30862;SDS011;17573;55.922;37.540;2022-12-18T15:06:46;11.55;;;8.30;;
30862;SDS011;17573;55.922;37.540;2022-12-18T15:09:22;12.68;;;8.20;;
30862;SDS011;17573;55.922;37.540;2022-12-18T15:12:22;13.43;;;8.90;;
30862;SDS011;17573;55.922;37.540;2022-12-18T15:18:32;12.68;;;9.80;;
30862;SDS011;17573;55.922;37.540;2022-12-18T15:21:09;10.88;;;7.50;;
30862;SDS011;17573;55.922;37.540;2022-12-18T15:24:13;16.15;;;8.75;;
30862;SDS011;17573;55.922;37.540;2022-12-18T15:26:52;13.13;;;8.85;;
30862;SDS011;17573;55.922;37.540;2022-12-18T15:29:59;11.50;;;9.00;;
30862;SDS011;17573;55.922;37.540;2022-12-18T15:32:43;21.13;;;10.57;;
30862;SDS011;17573;55.922;37.540;2022-12-18T15:35:36;12.73;;;8.68;;
30862;SDS011;17573;55.922;37.540;2022-12-18T15:38:08;15.27;;;9.43;;
30862;SDS011;17573;55.922;37.540;2022-12-18T15:41:01;13.43;;;9.95;;
30862;SDS011;17573;55.922;37.540;2022-12-18T15:43:33;10.82;;;7.82;;
30862;SDS011;17573;55.922;37.540;2022-12-18T15:46:30;13.65;;;8.52;;
30862;SDS011;17573;55.922;37.540;2022-12-18T15:49:02;13.70;;;9.13;;
30862;SDS011;17573;55.922;37.540;2022-12-18T15:51:56;13.40;;;9.75;;
30862;SDS011;17573;55.922;37.540;2022-12-18T15:54:29;14.02;;;9.68;;
30862;SDS011;17573;55.922;37.540;2022-12-18T15:57:40;13.93;;;9.45;;
30862;SDS011;17573;55.922;37.540;2022-12-18T16:00:13;11.43;;;9.45;;
30862;SDS011;17573;55.922;37.540;2022-12-18T16:03:05;14.05;;;8.57;;
30862;SDS011;17573;55.922;37.540;2022-12-18T16:05:38;17.67;;;8.80;;
30862;SDS011;17573;55.922;37.540;2022-12-18T16:08:30;10.32;;;8.77;;
30862;SDS011;17573;55.922;37.540;2022-12-18T16:11:03;15.77;;;9.48;;
30862;SDS011;17573;55.922;37.540;2022-12-18T16:13:55;16.48;;;9.38;;
30862;SDS011;17573;55.922;37.540;2022-12-18T16:16:28;13.85;;;9.60;;
30862;SDS011;17573;55.922;37.540;2022-12-18T16:19:20;11.45;;;8.18;;
30862;SDS011;17573;55.922;37.540;2022-12-18T16:21:54;11.07;;;8.02;;
30862;SDS011;17573;55.922;37.540;2022-12-18T16:24:49;12.82;;;8.73;;
30862;SDS011;17573;55.922;37.540;2022-12-18T16:27:22;11.27;;;7.28;;
30862;SDS011;17573;55.922;37.540;2022-12-18T16:30:16;10.23;;;7.53;;
30862;SDS011;17573;55.922;37.540;2022-12-18T16:32:50;15.60;;;10.27;;
30862;SDS011;17573;55.922;37.540;2022-12-18T16:35:48;16.92;;;10.18;;
30862;SDS011;17573;55.922;37.540;2022-12-18T16:38:22;15.45;;;9.50;;
30862;SDS011;17573;55.922;37.540;2022-12-18T16:41:18;12.13;;;9.75;;
30862;SDS011;17573;55.922;37.540;2022-12-18T16:44:11;14.25;;;10.30;;
30862;SDS011;17573;55.922;37.540;2022-12-18T16:47:04;15.82;;;10.63;;
30862;SDS011;17573;55.922;37.540;2022-12-18T16:49:37;14.77;;;10.52;;
30862;SDS011;17573;55.922;37.540;2022-12-18T16:52:35;16.60;;;9.73;;
30862;SDS011;17573;55.922;37.540;2022-12-18T16:55:09;12.00;;;9.40;;
30862;SDS011;17573;55.922;37.540;2022-12-18T16:58:01;16.00;;;10.57;;
30862;SDS011;17573;55.922;37.540;2022-12-18T17:00:33;18.25;;;11.73;;
30862;SDS011;17573;55.922;37.540;2022-12-18T17:03:26;11.98;;;9.15;;
30862;SDS011;17573;55.922;37.540;2022-12-18T17:06:05;15.27;;;10.73;;
30862;SDS011;17573;55.922;37.540;2022-12-18T17:08:59;13.52;;;10.13;;
30862;SDS011;17573;55.922;37.540;2022-12-18T17:11:33;13.52;;;9.85;;
30862;SDS011;17573;55.922;37.540;2022-12-18T17:14:26;15.57;;;9.48;;
30862;SDS011;17573;55.922;37.540;2022-12-18T17:16:59;11.95;;;10.07;;
30862;SDS011;17573;55.922;37.540;2022-12-18T17:19:52;15.82;;;10.75;;
30862;SDS011;17573;55.922;37.540;2022-12-18T17:22:24;13.80;;;7.70;;
30862;SDS011;17573;55.922;37.540;2022-12-18T17:25:17;21.20;;;10.43;;
30862;SDS011;17573;55.922;37.540;2022-12-18T17:27:50;15.70;;;9.20;;
30862;SDS011;17573;55.922;37.540;2022-12-18T17:30:42;17.10;;;10.13;;
30862;SDS011;17573;55.922;37.540;2022-12-18T17:33:15;16.20;;;9.43;;
30862;SDS011;17573;55.922;37.540;2022-12-18T17:36:07;18.35;;;11.73;;
30862;SDS011;17573;55.922;37.540;2022-12-18T17:38:59;13.88;;;8.48;;
30862;SDS011;17573;55.922;37.540;2022-12-18T17:41:52;16.85;;;9.98;;
30862;SDS011;17573;55.922;37.540;2022-12-18T17:44:24;14.45;;;10.50;;
30862;SDS011;17573;55.922;37.540;2022-12-18T17:47:18;12.85;;;8.93;;
30862;SDS011;17573;55.922;37.540;2022-12-18T17:49:51;16.60;;;10.90;;
30862;SDS011;17573;55.922;37.540;2022-12-18T17:52:43;14.00;;;10.40;;
30862;SDS011;17573;55.922;37.540;2022-12-18T17:55:15;15.65;;;10.55;;
30862;SDS011;17573;55.922;37.540;2022-12-18T17:58:08;18.08;;;10.63;;
30862;SDS011;17573;55.922;37.540;2022-12-18T18:00:41;16.73;;;10.45;;
30862;SDS011;17573;55.922;37.540;2022-12-18T18:03:36;14.15;;;9.25;;
30862;SDS011;17573;55.922;37.540;2022-12-18T18:06:08;14.98;;;9.68;;
30862;SDS011;17573;55.922;37.540;2022-12-18T18:09:01;19.10;;;10.13;;
30862;SDS011;17573;55.922;37.540;2022-12-18T18:11:34;13.30;;;9.82;;